createdAt,value
2023-06-14T00:00:49.602Z,1001.42
2023-06-14T00:01:49.663Z,1001.42
2023-06-14T00:02:49.808Z,1001.43
2023-06-14T00:03:49.690Z,1001.49
2023-06-14T00:04:49.643Z,1001.47
2023-06-14T00:05:49.535Z,1001.50
2023-06-14T00:06:49.517Z,1001.50
2023-06-14T00:07:49.655Z,1001.61
2023-06-14T00:08:49.490Z,1001.57
2023-06-14T00:09:49.474Z,1001.45
2023-06-14T00:10:49.501Z,1001.58
2023-06-14T00:11:49.446Z,1001.59
2023-06-14T00:12:49.443Z,1001.58
2023-06-14T00:13:49.437Z,1001.64
2023-06-14T00:14:50.862Z,1001.63
2023-06-14T00:15:49.414Z,1001.61
2023-06-14T00:16:49.482Z,1001.56
2023-06-14T00:17:49.407Z,1001.60
2023-06-14T00:18:49.356Z,1001.64
2023-06-14T00:19:49.335Z,1001.60
2023-06-14T00:20:49.442Z,1001.60
2023-06-14T00:21:49.316Z,1001.63
2023-06-14T00:22:49.296Z,1001.63
2023-06-14T00:23:49.373Z,1001.66
2023-06-14T00:24:49.281Z,1001.64
2023-06-14T00:25:49.263Z,1001.69
2023-06-14T00:26:49.243Z,1001.65
2023-06-14T00:27:49.232Z,1001.72
2023-06-14T00:28:49.236Z,1001.77
2023-06-14T00:29:49.215Z,1001.72
2023-06-14T00:30:49.197Z,1001.73
2023-06-14T00:31:49.240Z,1001.77
2023-06-14T00:32:49.275Z,1001.77
2023-06-14T00:33:49.183Z,1001.77
2023-06-14T00:34:49.151Z,1001.78
2023-06-14T00:35:49.136Z,1001.82
2023-06-14T00:36:49.147Z,1001.76
2023-06-14T00:37:49.106Z,1001.74
2023-06-14T00:38:49.104Z,1001.77
2023-06-14T00:39:49.075Z,1001.75
2023-06-14T00:40:49.080Z,1001.75
2023-06-14T00:41:49.046Z,1001.75
2023-06-14T00:42:49.046Z,1001.83
2023-06-14T00:43:49.039Z,1001.79
2023-06-14T00:44:49.012Z,1001.76
2023-06-14T00:45:48.996Z,1001.79
2023-06-14T00:46:49.120Z,1001.72
2023-06-14T00:47:49.016Z,1001.76
2023-06-14T00:48:48.971Z,1001.81
2023-06-14T00:49:48.978Z,1001.79
2023-06-14T00:50:48.929Z,1001.81
2023-06-14T00:51:48.912Z,1001.78
2023-06-14T00:52:48.912Z,1001.79
2023-06-14T00:53:48.891Z,1001.75
2023-06-14T00:54:48.893Z,1001.86
2023-06-14T00:55:49.128Z,1001.85
2023-06-14T00:56:48.842Z,1001.86
2023-06-14T00:57:48.839Z,1001.85
2023-06-14T00:58:48.862Z,1001.84
2023-06-14T00:59:48.828Z,1001.87
2023-06-14T01:00:48.815Z,1001.88
2023-06-14T01:01:48.820Z,1001.85
2023-06-14T01:02:48.823Z,1001.86
2023-06-14T01:03:48.917Z,1001.84
2023-06-14T01:04:48.754Z,1001.87
2023-06-14T01:05:48.734Z,1001.85
2023-06-14T01:06:48.730Z,1001.92
2023-06-14T01:07:48.725Z,1001.88
2023-06-14T01:08:48.746Z,1001.86
2023-06-14T01:09:48.687Z,1001.87
2023-06-14T01:10:48.672Z,1001.91
2023-06-14T01:11:48.653Z,1001.83
2023-06-14T01:12:48.643Z,1001.86
2023-06-14T01:13:48.643Z,1001.86
2023-06-14T01:14:48.612Z,1001.86
2023-06-14T01:15:48.596Z,1001.92
2023-06-14T01:16:48.860Z,1001.88
2023-06-14T01:17:48.629Z,1001.82
2023-06-14T01:18:48.585Z,1001.90
2023-06-14T01:19:48.562Z,1001.78
2023-06-14T01:20:48.528Z,1001.85
2023-06-14T01:21:48.517Z,1001.83
2023-06-14T01:22:48.515Z,1001.88
2023-06-14T01:23:48.508Z,1001.88
2023-06-14T01:24:48.479Z,1001.86
2023-06-14T01:25:48.467Z,1001.86
2023-06-14T01:26:48.455Z,1001.91
2023-06-14T01:27:48.465Z,1001.85
2023-06-14T01:28:48.433Z,1001.86
2023-06-14T01:29:48.434Z,1001.84
2023-06-14T01:30:48.393Z,1001.85
2023-06-14T01:31:48.394Z,1001.86
2023-06-14T01:32:48.413Z,1001.87
2023-06-14T01:33:48.386Z,1001.84
2023-06-14T01:34:48.394Z,1001.90
2023-06-14T01:35:48.326Z,1001.88
2023-06-14T01:36:48.323Z,1001.86
2023-06-14T01:37:48.310Z,1001.91
2023-06-14T01:38:48.434Z,1001.87
2023-06-14T01:39:48.315Z,1001.90
2023-06-14T01:40:48.277Z,1001.87
2023-06-14T01:41:48.265Z,1001.85
2023-06-14T01:42:48.265Z,1001.90
2023-06-14T01:43:48.255Z,1001.85
2023-06-14T01:44:48.225Z,1001.90
2023-06-14T01:45:48.306Z,1001.81
2023-06-14T01:46:48.192Z,1001.84
2023-06-14T01:47:48.257Z,1001.86
2023-06-14T01:48:48.164Z,1001.90
2023-06-14T01:49:48.180Z,1001.89
2023-06-14T01:50:48.134Z,1001.92
2023-06-14T01:51:48.117Z,1001.92
2023-06-14T01:52:48.111Z,1001.85
2023-06-14T01:53:48.119Z,1001.85
2023-06-14T01:54:48.084Z,1001.88
2023-06-14T01:55:48.066Z,1001.88
2023-06-14T01:56:48.070Z,1001.85
2023-06-14T01:57:48.044Z,1001.83
2023-06-14T01:58:48.084Z,1001.91
2023-06-14T01:59:48.011Z,1001.85
2023-06-14T02:00:47.994Z,1001.84
2023-06-14T02:01:48.068Z,1001.85
2023-06-14T02:02:48.032Z,1001.85
2023-06-14T02:03:47.963Z,1001.77
2023-06-14T02:04:47.965Z,1001.84
2023-06-14T02:05:47.962Z,1001.85
2023-06-14T02:06:47.959Z,1001.80
2023-06-14T02:07:47.913Z,1001.80
2023-06-14T02:08:47.911Z,1001.85
2023-06-14T02:09:47.898Z,1001.85
2023-06-14T02:10:47.915Z,1001.84
2023-06-14T02:11:47.880Z,1001.86
2023-06-14T02:12:47.860Z,1001.80
2023-06-14T02:13:47.858Z,1001.88
2023-06-14T02:14:47.815Z,1001.87
2023-06-14T02:15:47.916Z,1001.83
2023-06-14T02:16:47.789Z,1001.85
2023-06-14T02:17:47.794Z,1001.88
2023-06-14T02:18:47.759Z,1001.87
2023-06-14T02:19:47.777Z,1001.87
2023-06-14T02:20:47.742Z,1001.84
2023-06-14T02:21:47.732Z,1001.86
2023-06-14T02:22:47.708Z,1001.86
2023-06-14T02:23:47.714Z,1001.86
2023-06-14T02:24:47.696Z,1001.85
2023-06-14T02:25:47.803Z,1001.89
2023-06-14T02:26:47.684Z,1001.88
2023-06-14T02:27:47.657Z,1001.92
2023-06-14T02:28:47.646Z,1001.92
2023-06-14T02:29:47.623Z,1001.90
2023-06-14T02:30:47.616Z,1001.89
2023-06-14T02:31:48.053Z,1001.91
2023-06-14T02:32:47.644Z,1001.94
2023-06-14T02:33:47.577Z,1001.94
2023-06-14T02:34:47.553Z,1001.94
2023-06-14T02:35:47.577Z,1001.99
2023-06-14T02:36:47.530Z,1001.92
2023-06-14T02:37:47.516Z,1001.86
2023-06-14T02:38:47.537Z,1001.94
2023-06-14T02:39:47.494Z,1001.92
2023-06-14T02:40:47.474Z,1001.91
2023-06-14T02:41:47.463Z,1001.86
2023-06-14T02:42:47.458Z,1001.91
2023-06-14T02:43:47.440Z,1001.95
2023-06-14T02:44:47.443Z,1001.94
2023-06-14T02:45:47.405Z,1002.00
2023-06-14T02:46:47.398Z,1001.98
2023-06-14T02:47:47.686Z,1001.98
2023-06-14T02:48:47.435Z,1001.98
2023-06-14T02:49:47.358Z,1001.99
2023-06-14T02:50:47.372Z,1001.98
2023-06-14T02:51:47.326Z,1001.91
2023-06-14T02:52:47.322Z,1001.95
2023-06-14T02:53:47.313Z,1001.99
2023-06-14T02:54:47.300Z,1002.03
2023-06-14T02:55:47.281Z,1001.94
2023-06-14T02:56:47.286Z,1002.03
2023-06-14T02:57:47.250Z,1002.04
2023-06-14T02:58:47.323Z,1001.97
2023-06-14T02:59:47.229Z,1002.03
2023-06-14T03:00:47.295Z,1002.08
2023-06-14T03:01:47.207Z,1002.02
2023-06-14T03:02:47.250Z,1002.06
2023-06-14T03:03:47.398Z,1002.08
2023-06-14T03:04:47.161Z,1002.08
2023-06-14T03:05:47.151Z,1002.10
2023-06-14T03:06:47.133Z,1002.10
2023-06-14T03:07:47.139Z,1002.13
2023-06-14T03:08:47.119Z,1002.11
2023-06-14T03:09:47.213Z,1002.12
2023-06-14T03:10:47.080Z,1002.14
2023-06-14T03:11:47.110Z,1002.10
2023-06-14T03:12:47.065Z,1002.13
2023-06-14T03:13:47.042Z,1002.15
2023-06-14T03:14:47.064Z,1002.16
2023-06-14T03:15:47.015Z,1002.14
2023-06-14T03:16:47.105Z,1002.20
2023-06-14T03:17:47.228Z,1002.18
2023-06-14T03:18:46.991Z,1002.13
2023-06-14T03:19:47.123Z,1002.17
2023-06-14T03:20:46.951Z,1002.20
2023-06-14T03:21:46.943Z,1002.14
2023-06-14T03:22:46.951Z,1002.17
2023-06-14T03:23:46.954Z,1002.22
2023-06-14T03:24:46.903Z,1002.17
2023-06-14T03:25:46.892Z,1002.16
2023-06-14T03:26:46.894Z,1002.23
2023-06-14T03:27:46.867Z,1002.20
2023-06-14T03:28:46.870Z,1002.23
2023-06-14T03:29:46.878Z,1002.18
2023-06-14T03:30:46.865Z,1002.32
2023-06-14T03:31:46.809Z,1002.29
2023-06-14T03:32:46.864Z,1002.26
2023-06-14T03:33:46.808Z,1002.27
2023-06-14T03:34:46.793Z,1002.31
2023-06-14T03:35:46.815Z,1002.34
2023-06-14T03:36:46.744Z,1002.39
2023-06-14T03:37:46.753Z,1002.30
2023-06-14T03:38:46.740Z,1002.41
2023-06-14T03:39:46.716Z,1002.41
2023-06-14T03:40:46.702Z,1002.39
2023-06-14T03:41:46.684Z,1002.40
2023-06-14T03:42:46.667Z,1002.48
2023-06-14T03:43:46.662Z,1002.47
2023-06-14T03:44:46.649Z,1002.40
2023-06-14T03:45:46.627Z,1002.45
2023-06-14T03:46:46.611Z,1002.43
2023-06-14T03:47:46.662Z,1002.54
2023-06-14T03:48:46.585Z,1002.56
2023-06-14T03:49:46.588Z,1002.53
2023-06-14T03:50:46.557Z,1002.52
2023-06-14T03:51:46.548Z,1002.53
2023-06-14T03:52:46.540Z,1002.59
2023-06-14T03:54:03.662Z,1002.57
2023-06-14T03:56:46.479Z,1002.58
2023-06-14T03:57:46.476Z,1002.63
2023-06-14T03:58:46.454Z,1002.53
2023-06-14T03:59:46.432Z,1002.59
2023-06-14T04:00:46.470Z,1002.64
2023-06-14T04:01:46.412Z,1002.67
2023-06-14T04:02:46.503Z,1002.65
2023-06-14T04:03:46.425Z,1002.66
2023-06-14T04:04:46.565Z,1002.65
2023-06-14T04:05:46.366Z,1002.73
2023-06-14T04:06:46.625Z,1002.74
2023-06-14T04:07:46.347Z,1002.79
2023-06-14T04:08:46.313Z,1002.70
2023-06-14T04:09:46.310Z,1002.74
2023-06-14T04:10:46.310Z,1002.79
2023-06-14T04:11:46.281Z,1002.83
2023-06-14T04:12:46.266Z,1002.81
2023-06-14T04:13:46.252Z,1002.81
2023-06-14T04:14:46.259Z,1002.93
2023-06-14T04:15:46.229Z,1002.80
2023-06-14T04:16:46.219Z,1002.85
2023-06-14T04:17:46.245Z,1002.82
2023-06-14T04:18:46.190Z,1002.86
2023-06-14T04:19:46.181Z,1002.87
2023-06-14T04:20:46.191Z,1002.92
2023-06-14T04:21:46.144Z,1002.82
2023-06-14T04:22:46.129Z,1002.95
2023-06-14T04:23:46.188Z,1002.96
2023-06-14T04:24:48.502Z,1002.94
2023-06-14T04:25:46.291Z,1003.00
2023-06-14T04:26:46.318Z,1002.97
2023-06-14T04:27:46.075Z,1002.93
2023-06-14T04:28:46.049Z,1002.99
2023-06-14T04:29:46.078Z,1003.12
2023-06-14T04:30:46.055Z,1003.08
2023-06-14T04:31:46.274Z,1003.03
2023-06-14T04:32:46.075Z,1003.03
2023-06-14T04:33:46.180Z,1003.05
2023-06-14T04:34:45.996Z,1003.07
2023-06-14T04:35:45.967Z,1003.01
2023-06-14T04:36:45.955Z,1003.01
2023-06-14T04:37:45.938Z,1003.13
2023-06-14T04:38:45.962Z,1003.08
2023-06-14T04:39:46.169Z,1003.07
2023-06-14T04:40:45.922Z,1003.13
2023-06-14T04:41:45.917Z,1003.20
2023-06-14T04:42:45.965Z,1003.14
2023-06-14T04:43:45.867Z,1003.14
2023-06-14T04:44:45.894Z,1003.18
2023-06-14T04:45:45.901Z,1003.07
2023-06-14T04:46:45.824Z,1003.20
2023-06-14T04:47:45.863Z,1003.08
2023-06-14T04:48:45.800Z,1003.14
2023-06-14T04:49:45.813Z,1003.18
2023-06-14T04:50:45.790Z,1003.18
2023-06-14T04:51:45.750Z,1003.29
2023-06-14T04:52:45.755Z,1003.28
2023-06-14T04:53:45.730Z,1003.27
2023-06-14T04:54:45.732Z,1003.33
2023-06-14T04:55:45.734Z,1003.30
2023-06-14T04:56:45.679Z,1003.33
2023-06-14T04:57:45.686Z,1003.30
2023-06-14T04:58:45.653Z,1003.31
2023-06-14T04:59:45.652Z,1003.29
2023-06-14T05:00:45.680Z,1003.34
2023-06-14T05:01:45.687Z,1003.34
2023-06-14T05:02:45.688Z,1003.29
2023-06-14T05:03:45.622Z,1003.36
2023-06-14T05:04:45.930Z,1003.34
2023-06-14T05:05:45.636Z,1003.38
2023-06-14T05:06:45.559Z,1003.37
2023-06-14T05:07:45.552Z,1003.34
2023-06-14T05:08:45.530Z,1003.36
2023-06-14T05:09:45.686Z,1003.36
2023-06-14T05:10:45.509Z,1003.38
2023-06-14T05:11:45.502Z,1003.36
2023-06-14T05:12:45.470Z,1003.34
2023-06-14T05:13:45.458Z,1003.36
2023-06-14T05:14:45.519Z,1003.33
2023-06-14T05:15:45.475Z,1003.36
2023-06-14T05:16:45.415Z,1003.37
2023-06-14T05:17:45.429Z,1003.39
2023-06-14T05:18:45.385Z,1003.42
2023-06-14T05:19:45.408Z,1003.40
2023-06-14T05:20:45.368Z,1003.42
2023-06-14T05:21:45.350Z,1003.38
2023-06-14T05:22:45.335Z,1003.44
2023-06-14T05:23:45.430Z,1003.44
2023-06-14T05:24:45.329Z,1003.42
2023-06-14T05:25:45.327Z,1003.38
2023-06-14T05:26:45.272Z,1003.37
2023-06-14T05:27:45.273Z,1003.31
2023-06-14T05:28:45.259Z,1003.39
2023-06-14T05:29:45.239Z,1003.35
2023-06-14T05:30:45.241Z,1003.29
2023-06-14T05:31:45.332Z,1003.33
2023-06-14T05:32:45.220Z,1003.30
2023-06-14T05:33:45.210Z,1003.28
2023-06-14T05:34:45.170Z,1003.38
2023-06-14T05:35:45.170Z,1003.34
2023-06-14T05:36:45.158Z,1003.39
2023-06-14T05:37:45.136Z,1003.41
2023-06-14T05:38:45.119Z,1003.34
2023-06-14T05:39:45.126Z,1003.33
2023-06-14T05:40:45.404Z,1003.35
2023-06-14T05:41:45.077Z,1003.38
2023-06-14T05:42:45.072Z,1003.43
2023-06-14T05:43:45.077Z,1003.35
2023-06-14T05:44:45.043Z,1003.37
2023-06-14T05:45:45.059Z,1003.34
2023-06-14T05:46:45.060Z,1003.36
2023-06-14T05:47:45.048Z,1003.35
2023-06-14T05:48:44.990Z,1003.41
2023-06-14T05:49:44.983Z,1003.40
2023-06-14T05:50:44.989Z,1003.44
2023-06-14T05:51:44.942Z,1003.39
2023-06-14T05:52:44.933Z,1003.48
2023-06-14T05:53:44.925Z,1003.56
2023-06-14T05:54:44.905Z,1003.53
2023-06-14T05:55:44.906Z,1003.58
2023-06-14T05:56:44.899Z,1003.52
2023-06-14T05:57:44.871Z,1003.60
2023-06-14T05:58:44.849Z,1003.56
2023-06-14T05:59:44.831Z,1003.55
2023-06-14T06:00:44.840Z,1003.54
2023-06-14T06:01:44.871Z,1003.56
2023-06-14T06:02:45.032Z,1003.54
2023-06-14T06:03:44.838Z,1003.59
2023-06-14T06:04:44.787Z,1003.56
2023-06-14T06:05:44.786Z,1003.54
2023-06-14T06:06:44.742Z,1003.63
2023-06-14T06:07:44.728Z,1003.66
2023-06-14T06:08:44.716Z,1003.61
2023-06-14T06:09:44.721Z,1003.63
2023-06-14T06:10:44.707Z,1003.56
2023-06-14T06:11:53.155Z,1003.57
2023-06-14T06:12:45.680Z,1003.56
2023-06-14T06:13:44.667Z,1003.61
2023-06-14T06:14:44.642Z,1003.62
2023-06-14T06:15:44.646Z,1003.64
2023-06-14T06:16:44.681Z,1003.63
2023-06-14T06:17:55.453Z,1003.73
2023-06-14T06:18:45.953Z,1003.64
2023-06-14T06:19:44.574Z,1003.62
2023-06-14T06:20:44.594Z,1003.62
2023-06-14T06:21:44.571Z,1003.66
2023-06-14T06:22:44.547Z,1003.62
2023-06-14T06:23:44.552Z,1003.67
2023-06-14T06:24:46.000Z,1003.54
2023-06-14T06:25:44.514Z,1003.56
2023-06-14T06:26:44.490Z,1003.54
2023-06-14T06:27:44.487Z,1003.51
2023-06-14T06:28:44.468Z,1003.55
2023-06-14T06:29:44.444Z,1003.59
2023-06-14T06:30:44.499Z,1003.64
2023-06-14T06:31:44.469Z,1003.57
2023-06-14T06:32:44.453Z,1003.59
2023-06-14T06:33:44.400Z,1003.68
2023-06-14T06:34:44.396Z,1003.69
2023-06-14T06:35:44.410Z,1003.72
2023-06-14T06:36:44.358Z,1003.72
2023-06-14T06:37:44.347Z,1003.71
2023-06-14T06:38:44.338Z,1003.70
2023-06-14T06:39:44.322Z,1003.73
2023-06-14T06:40:44.459Z,1003.75
2023-06-14T06:41:44.305Z,1003.76
2023-06-14T06:42:44.288Z,1003.73
2023-06-14T06:43:44.261Z,1003.74
2023-06-14T06:44:44.257Z,1003.75
2023-06-14T06:45:45.103Z,1003.74
2023-06-14T06:46:44.478Z,1003.86
2023-06-14T06:47:44.260Z,1003.85
2023-06-14T06:48:44.203Z,1003.88
2023-06-14T06:49:44.190Z,1003.89
2023-06-14T06:50:44.187Z,1003.93
2023-06-14T06:51:44.172Z,1003.93
2023-06-14T06:52:44.156Z,1003.80
2023-06-14T06:53:48.190Z,1003.94
2023-06-14T06:54:45.133Z,1003.85
2023-06-14T06:55:44.119Z,1003.90
2023-06-14T06:56:44.095Z,1003.92
2023-06-14T06:57:44.080Z,1003.94
2023-06-14T06:58:44.083Z,1003.98
2023-06-14T06:59:44.058Z,1003.93
2023-06-14T07:00:44.072Z,1003.89
2023-06-14T07:01:44.100Z,1003.91
2023-06-14T07:02:44.116Z,1003.91
2023-06-14T07:03:44.038Z,1003.91
2023-06-14T07:04:43.999Z,1003.92
2023-06-14T07:05:44.023Z,1003.88
2023-06-14T07:06:43.978Z,1003.94
2023-06-14T07:07:43.956Z,1003.99
2023-06-14T07:08:43.943Z,1003.95
2023-06-14T07:09:44.002Z,1004.03
2023-06-14T07:10:43.943Z,1003.98
2023-06-14T07:11:43.911Z,1003.99
2023-06-14T07:12:43.889Z,1003.99
2023-06-14T07:13:43.898Z,1003.94
2023-06-14T07:14:43.876Z,1004.01
2023-06-14T07:15:43.890Z,1003.94
2023-06-14T07:16:43.961Z,1004.00
2023-06-14T07:17:43.886Z,1003.95
2023-06-14T07:18:43.845Z,1004.00
2023-06-14T07:19:43.803Z,1003.96
2023-06-14T07:20:43.805Z,1003.98
2023-06-14T07:21:43.770Z,1003.95
2023-06-14T07:22:43.778Z,1003.99
2023-06-14T07:23:43.802Z,1003.97
2023-06-14T07:24:43.736Z,1004.04
2023-06-14T07:25:43.743Z,1004.08
2023-06-14T07:26:43.708Z,1004.07
2023-06-14T07:27:43.710Z,1004.01
2023-06-14T07:28:43.691Z,1004.02
2023-06-14T07:29:43.719Z,1003.96
2023-06-14T07:30:43.704Z,1004.05
2023-06-14T07:31:43.647Z,1004.09
2023-06-14T07:32:43.727Z,1004.09
2023-06-14T07:33:43.695Z,1004.07
2023-06-14T07:34:43.613Z,1004.02
2023-06-14T07:35:43.611Z,1004.09
2023-06-14T07:36:43.590Z,1004.11
2023-06-14T07:37:43.571Z,1004.11
2023-06-14T07:38:43.561Z,1004.01
2023-06-14T07:39:43.556Z,1004.12
2023-06-14T07:40:43.545Z,1004.03
2023-06-14T07:41:43.527Z,1004.01
2023-06-14T07:42:43.506Z,1004.07
2023-06-14T07:43:43.504Z,1004.11
2023-06-14T07:44:43.483Z,1004.09
2023-06-14T07:45:53.991Z,1004.06
2023-06-14T07:46:44.474Z,1004.09
2023-06-14T07:47:43.607Z,1004.05
2023-06-14T07:48:43.542Z,1004.04
2023-06-14T07:49:43.427Z,1004.10
2023-06-14T07:50:43.623Z,1004.18
2023-06-14T07:51:43.400Z,1004.12
2023-06-14T07:52:43.379Z,1004.04
2023-06-14T07:53:43.379Z,1004.10
2023-06-14T07:54:43.370Z,1004.08
2023-06-14T07:55:53.037Z,1004.07
2023-06-14T07:56:45.028Z,1004.08
2023-06-14T07:57:43.321Z,1004.07
2023-06-14T07:58:43.314Z,1004.09
2023-06-14T07:59:43.292Z,1004.03
2023-06-14T08:00:43.271Z,1004.10
2023-06-14T08:01:43.275Z,1004.17
2023-06-14T08:02:43.328Z,1004.14
2023-06-14T08:03:43.363Z,1004.10
2023-06-14T08:04:43.232Z,1004.13
2023-06-14T08:05:43.213Z,1004.21
2023-06-14T08:06:43.284Z,1004.21
2023-06-14T08:07:43.186Z,1004.29
2023-06-14T08:08:43.171Z,1004.21
2023-06-14T08:09:43.161Z,1004.34
2023-06-14T08:10:43.174Z,1004.21
2023-06-14T08:11:43.160Z,1004.28
2023-06-14T08:12:43.139Z,1004.23
2023-06-14T08:13:43.123Z,1004.22
2023-06-14T08:14:43.099Z,1004.23
2023-06-14T08:15:43.177Z,1004.22
2023-06-14T08:16:43.109Z,1004.28
2023-06-14T08:17:43.099Z,1004.21
2023-06-14T08:18:43.072Z,1004.18
2023-06-14T08:19:43.048Z,1004.16
2023-06-14T08:20:43.031Z,1004.12
2023-06-14T08:21:43.018Z,1004.16
2023-06-14T08:22:42.997Z,1004.09
2023-06-14T08:23:43.001Z,1004.16
2023-06-14T08:24:42.962Z,1004.15
2023-06-14T08:25:42.971Z,1004.13
2023-06-14T08:26:42.958Z,1004.20
2023-06-14T08:27:42.960Z,1004.21
2023-06-14T08:28:42.913Z,1004.10
2023-06-14T08:29:42.916Z,1004.16
2023-06-14T08:30:42.915Z,1004.21
2023-06-14T08:31:42.977Z,1004.11
2023-06-14T08:32:42.941Z,1004.17
2023-06-14T08:33:43.092Z,1004.15
2023-06-14T08:34:47.736Z,1004.17
2023-06-14T08:35:43.845Z,1004.13
2023-06-14T08:36:42.832Z,1004.18
2023-06-14T08:37:42.814Z,1004.20
2023-06-14T08:38:42.787Z,1004.14
2023-06-14T08:39:42.777Z,1004.17
2023-06-14T08:40:42.769Z,1004.20
2023-06-14T08:41:42.787Z,1004.20
2023-06-14T08:42:42.739Z,1004.16
2023-06-14T08:43:42.720Z,1004.23
2023-06-14T08:44:42.716Z,1004.13
2023-06-14T08:45:42.689Z,1004.14
2023-06-14T08:46:42.705Z,1004.22
2023-06-14T08:47:42.759Z,1004.25
2023-06-14T08:48:42.657Z,1004.21
2023-06-14T08:49:42.693Z,1004.28
2023-06-14T08:50:42.982Z,1004.16
2023-06-14T08:51:42.652Z,1004.17
2023-06-14T08:52:42.601Z,1004.20
2023-06-14T08:53:42.758Z,1004.22
2023-06-14T08:54:42.588Z,1004.17
2023-06-14T08:55:43.872Z,1004.20
2023-06-14T08:56:42.608Z,1004.03
2023-06-14T08:57:42.540Z,1004.13
2023-06-14T08:58:42.530Z,1004.09
2023-06-14T08:59:42.524Z,1004.10
2023-06-14T09:00:42.584Z,1004.11
2023-06-14T09:01:49.277Z,1004.08
2023-06-14T09:02:43.485Z,1004.15
2023-06-14T09:03:42.480Z,1004.07
2023-06-14T09:04:42.449Z,1004.08
2023-06-14T09:05:42.461Z,1004.02
2023-06-14T09:06:42.429Z,1004.10
2023-06-14T09:07:42.420Z,1004.06
2023-06-14T09:08:42.417Z,1004.05
2023-06-14T09:09:47.595Z,1004.00
2023-06-14T09:10:43.460Z,1004.07
2023-06-14T09:11:42.367Z,1004.12
2023-06-14T09:12:42.355Z,1004.17
2023-06-14T09:13:42.334Z,1004.06
2023-06-14T09:14:42.326Z,1004.06
2023-06-14T09:15:42.349Z,1004.05
2023-06-14T09:16:42.334Z,1003.95
2023-06-14T09:17:42.365Z,1004.01
2023-06-14T09:18:42.274Z,1004.01
2023-06-14T09:19:42.258Z,1004.02
2023-06-14T09:20:42.255Z,1004.07
2023-06-14T09:21:42.248Z,1004.00
2023-06-14T09:22:42.221Z,1004.05
2023-06-14T09:23:42.334Z,1004.16
2023-06-14T09:24:42.190Z,1004.12
2023-06-14T09:25:42.440Z,1004.14
2023-06-14T09:26:42.198Z,1004.08
2023-06-14T09:27:42.150Z,1004.13
2023-06-14T09:28:42.148Z,1004.24
2023-06-14T09:29:42.153Z,1004.05
2023-06-14T09:30:42.334Z,1004.11
2023-06-14T09:31:42.221Z,1004.19
2023-06-14T09:32:42.161Z,1004.13
2023-06-14T09:33:42.091Z,1004.14
2023-06-14T09:34:42.067Z,1004.14
2023-06-14T09:35:42.223Z,1004.22
2023-06-14T09:36:42.061Z,1004.19
2023-06-14T09:37:42.033Z,1004.11
2023-06-14T09:38:42.019Z,1004.11
2023-06-14T09:39:42.001Z,1004.19
2023-06-14T09:40:41.985Z,1004.24
2023-06-14T09:41:42.003Z,1004.25
2023-06-14T09:42:41.985Z,1004.17
2023-06-14T09:43:41.969Z,1004.24
2023-06-14T09:44:41.933Z,1004.19
2023-06-14T09:45:42.041Z,1004.17
2023-06-14T09:46:41.925Z,1004.18
2023-06-14T09:47:49.898Z,1004.23
2023-06-14T09:48:42.985Z,1004.21
2023-06-14T09:49:41.869Z,1004.25
2023-06-14T09:50:41.867Z,1004.28
2023-06-14T09:51:41.861Z,1004.16
2023-06-14T09:52:41.836Z,1004.18
2023-06-14T09:53:41.837Z,1004.19
2023-06-14T09:54:41.804Z,1004.19
2023-06-14T09:55:41.815Z,1004.24
2023-06-14T09:56:41.998Z,1004.21
2023-06-14T09:57:41.773Z,1004.34
2023-06-14T09:58:41.787Z,1004.16
2023-06-14T09:59:41.744Z,1004.23
2023-06-14T10:00:41.941Z,1004.30
2023-06-14T10:01:41.754Z,1004.25
2023-06-14T10:02:41.768Z,1004.30
2023-06-14T10:03:57.485Z,1004.17
2023-06-14T10:04:42.737Z,1004.21
2023-06-14T10:05:41.667Z,1004.35
2023-06-14T10:06:41.677Z,1004.28
2023-06-14T10:07:41.645Z,1004.22
2023-06-14T10:08:41.634Z,1004.24
2023-06-14T10:09:41.620Z,1004.28
2023-06-14T10:10:41.638Z,1004.17
2023-06-14T10:11:41.622Z,1004.16
2023-06-14T10:12:41.597Z,1004.25
2023-06-14T10:13:41.566Z,1004.27
2023-06-14T10:14:41.568Z,1004.26
2023-06-14T10:15:41.563Z,1004.20
2023-06-14T10:16:41.609Z,1004.22
2023-06-14T10:17:41.545Z,1004.31
2023-06-14T10:18:41.517Z,1004.22
2023-06-14T10:19:41.509Z,1004.26
2023-06-14T10:20:41.524Z,1004.18
2023-06-14T10:21:41.470Z,1004.16
2023-06-14T10:22:41.465Z,1004.18
2023-06-14T10:23:41.482Z,1004.27
2023-06-14T10:24:41.446Z,1004.26
2023-06-14T10:25:41.425Z,1004.29
2023-06-14T10:26:41.417Z,1004.34
2023-06-14T10:27:41.432Z,1004.21
2023-06-14T10:28:41.445Z,1004.22
2023-06-14T10:29:41.382Z,1004.20
2023-06-14T10:30:41.374Z,1004.30
2023-06-14T10:31:41.363Z,1004.35
2023-06-14T10:32:42.043Z,1004.25
2023-06-14T10:33:43.802Z,1004.19
2023-06-14T10:34:41.305Z,1004.25
2023-06-14T10:35:41.340Z,1004.24
2023-06-14T10:36:41.284Z,1004.23
2023-06-14T10:37:41.265Z,1004.16
2023-06-14T10:38:41.257Z,1004.12
2023-06-14T10:39:41.243Z,1004.17
2023-06-14T10:40:43.427Z,1004.19
2023-06-14T10:41:41.226Z,1004.21
2023-06-14T10:42:41.199Z,1004.26
2023-06-14T10:43:41.189Z,1004.14
2023-06-14T10:44:41.178Z,1004.06
2023-06-14T10:45:41.173Z,1004.04
2023-06-14T10:46:42.435Z,1004.11
2023-06-14T10:47:41.190Z,1004.08
2023-06-14T10:48:41.126Z,1004.10
2023-06-14T10:49:41.116Z,1004.05
2023-06-14T10:50:41.104Z,1004.09
2023-06-14T10:51:41.108Z,1004.12
2023-06-14T10:52:42.121Z,1004.09
2023-06-14T10:53:41.063Z,1004.05
2023-06-14T10:54:41.048Z,1004.05
2023-06-14T10:55:41.035Z,1004.10
2023-06-14T10:56:41.037Z,1004.10
2023-06-14T10:57:50.390Z,1003.96
2023-06-14T10:58:44.422Z,1003.93
2023-06-14T10:59:40.989Z,1004.04
2023-06-14T11:00:40.992Z,1004.15
2023-06-14T11:01:40.973Z,1004.02
2023-06-14T11:02:40.996Z,1004.02
2023-06-14T11:03:40.977Z,1004.10
2023-06-14T11:04:40.917Z,1004.08
2023-06-14T11:05:40.932Z,1004.09
2023-06-14T11:06:40.892Z,1004.06
2023-06-14T11:07:40.884Z,1004.12
2023-06-14T11:08:40.880Z,1004.14
2023-06-14T11:09:40.852Z,1004.03
2023-06-14T11:10:40.846Z,1004.16
2023-06-14T11:11:40.858Z,1004.09
2023-06-14T11:12:40.830Z,1004.12
2023-06-14T11:13:40.794Z,1004.10
2023-06-14T11:14:40.837Z,1004.14
2023-06-14T11:15:40.827Z,1004.10
2023-06-14T11:16:40.786Z,1004.06
2023-06-14T11:17:40.778Z,1004.13
2023-06-14T11:18:40.746Z,1004.03
2023-06-14T11:19:40.730Z,1004.16
2023-06-14T11:20:40.714Z,1004.03
2023-06-14T11:21:40.718Z,1004.12
2023-06-14T11:22:40.731Z,1004.13
2023-06-14T11:23:40.685Z,1004.10
2023-06-14T11:24:40.668Z,1004.15
2023-06-14T11:25:40.648Z,1004.13
2023-06-14T11:26:40.852Z,1004.12
2023-06-14T11:27:40.614Z,1004.01
2023-06-14T11:28:40.605Z,1004.02
2023-06-14T11:29:40.593Z,1004.07
2023-06-14T11:30:40.601Z,1003.94
2023-06-14T11:31:40.635Z,1004.09
2023-06-14T11:32:40.593Z,1004.13
2023-06-14T11:33:40.538Z,1004.06
2023-06-14T11:34:40.521Z,1003.95
2023-06-14T11:35:40.522Z,1004.02
2023-06-14T11:36:40.527Z,1003.92
2023-06-14T11:37:40.492Z,1003.99
2023-06-14T11:38:40.481Z,1003.97
2023-06-14T11:39:40.464Z,1003.97
2023-06-14T11:40:40.461Z,1003.99
2023-06-14T11:41:40.478Z,1003.91
2023-06-14T11:42:40.440Z,1003.97
2023-06-14T11:43:40.417Z,1004.10
2023-06-14T11:44:40.419Z,1003.95
2023-06-14T11:45:40.396Z,1003.87
2023-06-14T11:46:40.453Z,1003.95
2023-06-14T11:47:40.424Z,1003.93
2023-06-14T11:48:40.366Z,1003.92
2023-06-14T11:49:40.353Z,1003.98
2023-06-14T11:50:40.352Z,1003.87
2023-06-14T11:51:40.328Z,1004.00
2023-06-14T11:52:40.311Z,1003.96
2023-06-14T11:53:40.319Z,1003.95
2023-06-14T11:54:40.290Z,1003.92
2023-06-14T11:55:40.325Z,1003.84
2023-06-14T11:56:40.290Z,1003.87
2023-06-14T11:57:40.238Z,1003.99
2023-06-14T11:58:40.239Z,1003.90
2023-06-14T11:59:40.223Z,1003.99
2023-06-14T12:00:40.209Z,1004.00
2023-06-14T12:01:40.660Z,1003.95
2023-06-14T12:02:40.231Z,1004.01
2023-06-14T12:03:40.176Z,1003.90
2023-06-14T12:04:40.162Z,1003.95
2023-06-14T12:05:40.159Z,1003.98
2023-06-14T12:06:40.151Z,1003.97
2023-06-14T12:07:40.130Z,1003.93